Time;durP1;ratioP1;P1;durP2;ratioP2;P2;SDS_P1;SDS_P2;PMS_P1;PMS_P2;Temp;Humidity;BMP_temperature;BMP_pressure;BME280_temperature;BME280_humidity;BME280_pressure;Samples;Min_cycle;Max_cycle;Signal;HPM_P1;HPM_P2
2022/12/14 05:01:44;;;;;;;1999.90;999.90;;;-0.90;99.90;;;;;;5673676;22;20536;-74
2022/12/14 05:04:24;;;;;;;1999.90;999.90;;;-0.80;99.90;;;;;;4976875;28;20047;-74
2022/12/14 05:07:15;;;;;;;1999.90;999.90;;;-0.80;99.90;;;;;;4975689;28;20497;-74
2022/12/14 05:09:55;;;;;;;1999.90;999.90;;;-0.80;99.90;;;;;;4976234;28;20039;-74
2022/12/14 05:12:30;;;;;;;1999.90;999.90;;;-0.80;99.90;;;;;;4976285;28;20032;-74
2022/12/14 05:15:18;;;;;;;1999.90;999.90;;;-0.80;99.90;;;;;;4975393;28;20555;-74
2022/12/14 05:17:43;;;;;;;1999.90;999.90;;;-0.70;99.90;;;;;;4976486;28;20042;-74
2022/12/14 05:20:14;;;;;;;1999.90;999.90;;;-0.70;99.90;;;;;;4976117;28;20405;-74
2022/12/14 05:22:40;;;;;;;1999.90;999.90;;;-0.70;99.90;;;;;;4976535;28;20035;-74
2022/12/14 05:25:06;;;;;;;1999.90;999.90;;;-0.80;99.90;;;;;;4976525;28;20070;-74
2022/12/14 05:27:32;;;;;;;1999.90;999.90;;;-0.80;99.90;;;;;;4976049;28;20508;-74
2022/12/14 05:29:57;;;;;;;1999.90;999.90;;;-0.80;99.90;;;;;;4975927;28;20031;-74
2022/12/14 05:32:23;;;;;;;1999.90;999.90;;;-0.80;99.90;;;;;;4975900;28;20362;-74
2022/12/14 05:34:48;;;;;;;1999.90;999.90;;;-0.80;99.90;;;;;;4976012;28;20745;-74
2022/12/14 05:37:14;;;;;;;1999.90;999.90;;;-0.80;99.90;;;;;;4976080;28;20126;-74
2022/12/14 05:39:39;;;;;;;1999.90;999.90;;;-0.90;99.90;;;;;;4975949;28;20481;-74
2022/12/14 05:42:05;;;;;;;1999.90;999.90;;;-0.80;99.90;;;;;;4975721;28;20067;-74
2022/12/14 05:44:31;;;;;;;1999.90;999.90;;;-0.80;99.90;;;;;;4976019;28;20050;-74
2022/12/14 05:46:56;;;;;;;1999.90;999.90;;;-0.90;99.90;;;;;;4975674;28;20039;-74
2022/12/14 05:49:22;;;;;;;1999.90;999.90;;;-0.90;99.90;;;;;;4975985;28;20078;-74
2022/12/14 05:51:48;;;;;;;1999.90;999.90;;;-0.90;99.90;;;;;;4974049;28;20493;-74
2022/12/14 05:54:13;;;;;;;1999.90;999.90;;;-0.90;99.90;;;;;;4974321;28;20111;-74
2022/12/14 05:56:39;;;;;;;1999.90;999.90;;;-0.80;99.90;;;;;;4975458;28;20046;-74
2022/12/14 05:59:04;;;;;;;1999.90;999.90;;;-0.80;99.90;;;;;;4975970;28;20452;-74
2022/12/14 06:01:30;;;;;;;1999.90;999.90;;;-0.80;99.90;;;;;;4975106;28;20043;-74
2022/12/14 06:03:55;;;;;;;1999.90;999.90;;;-0.80;99.90;;;;;;4975305;28;20039;-74
2022/12/14 06:06:21;;;;;;;1999.90;999.90;;;-0.70;99.90;;;;;;4974189;28;20075;-74
2022/12/14 06:08:47;;;;;;;1999.90;999.90;;;-0.80;99.90;;;;;;4975682;28;20031;-74
2022/12/14 06:11:15;;;;;;;1999.90;999.90;;;-0.80;99.90;;;;;;4975146;28;20114;-74
2022/12/14 06:13:42;;;;;;;1999.90;999.90;;;-0.80;99.90;;;;;;4975366;28;20517;-74
2022/12/14 06:16:14;;;;;;;1999.90;999.90;;;-0.70;99.90;;;;;;4975278;28;20126;-74
2022/12/14 06:18:48;;;;;;;1999.90;999.90;;;-0.70;99.90;;;;;;4975361;28;20037;-74
2022/12/14 06:21:15;;;;;;;1999.90;999.90;;;-0.70;99.90;;;;;;4975075;28;20489;-74
2022/12/14 06:23:41;;;;;;;1999.90;999.90;;;-0.70;99.90;;;;;;4975344;28;20046;-74
2022/12/14 06:26:08;;;;;;;1999.90;999.90;;;-0.80;99.90;;;;;;4975704;28;20041;-74
2022/12/14 06:28:34;;;;;;;1999.90;999.90;;;-0.80;99.90;;;;;;4975327;28;20102;-74
2022/12/14 06:31:00;;;;;;;1999.90;999.90;;;-0.80;99.90;;;;;;4975077;28;20032;-74
2022/12/14 06:33:26;;;;;;;1999.90;999.90;;;-0.80;99.90;;;;;;4975323;28;20566;-74
2022/12/14 06:35:52;;;;;;;1999.90;999.90;;;-0.90;99.90;;;;;;4975269;28;20117;-74
2022/12/14 06:38:17;;;;;;;1999.90;999.90;;;-0.90;99.90;;;;;;4975069;28;20091;-74
2022/12/14 06:40:43;;;;;;;1999.90;999.90;;;-0.80;99.90;;;;;;4974889;28;20420;-74
2022/12/14 06:43:09;;;;;;;1999.90;999.90;;;-0.80;99.90;;;;;;4975347;28;20126;-74
2022/12/14 06:45:35;;;;;;;1999.90;999.90;;;-0.80;99.90;;;;;;4975263;28;20044;-74
2022/12/14 06:48:01;;;;;;;1999.90;999.90;;;-0.80;99.90;;;;;;4975696;28;20031;-74
2022/12/14 06:50:27;;;;;;;1999.90;999.90;;;-0.80;99.90;;;;;;4974994;28;20122;-74
2022/12/14 06:52:56;;;;;;;1999.90;999.90;;;-0.80;99.90;;;;;;4975514;28;20036;-74
2022/12/14 06:55:22;;;;;;;1999.90;999.90;;;-0.80;99.90;;;;;;4975404;28;20035;-74
2022/12/14 06:57:52;;;;;;;1999.90;999.90;;;-0.80;99.90;;;;;;4975072;28;20142;-74
2022/12/14 07:00:19;;;;;;;1999.90;999.90;;;-0.80;99.90;;;;;;4974622;28;20039;-74
2022/12/14 07:02:45;;;;;;;1999.90;999.90;;;-0.80;99.90;;;;;;4974950;28;20527;-74
2022/12/14 07:05:11;;;;;;;1999.90;999.90;;;-0.80;99.90;;;;;;4974965;28;20047;-74
2022/12/14 07:07:37;;;;;;;1999.90;999.90;;;-0.80;99.90;;;;;;4973522;28;20031;-74
2022/12/14 07:10:04;;;;;;;1999.90;999.90;;;-0.80;99.90;;;;;;4974833;28;20062;-74
2022/12/14 07:12:30;;;;;;;1999.90;999.90;;;-0.90;99.90;;;;;;4974834;28;20109;-74
2022/12/14 07:14:56;;;;;;;1999.90;999.90;;;-0.80;99.90;;;;;;4974790;28;20477;-74
2022/12/14 07:17:21;;;;;;;1999.90;999.90;;;-0.80;99.90;;;;;;4974892;28;20039;-74
2022/12/14 07:19:47;;;;;;;1999.90;999.90;;;-0.80;99.90;;;;;;4974684;28;20544;-76
2022/12/14 07:22:13;;;;;;;1999.90;999.90;;;-0.90;99.90;;;;;;4972689;28;21077;-76
2022/12/14 07:24:39;;;;;;;1999.90;999.90;;;-0.90;99.90;;;;;;4974931;28;20115;-77
2022/12/14 07:27:05;;;;;;;1999.90;999.90;;;-0.80;99.90;;;;;;4973157;28;20122;-77
2022/12/14 07:29:30;;;;;;;1999.90;999.90;;;-0.80;99.90;;;;;;4974725;28;20031;-76
2022/12/14 07:31:56;;;;;;;1999.90;999.90;;;-0.80;99.90;;;;;;4977620;28;20047;-76
2022/12/14 07:34:22;;;;;;;1999.90;999.90;;;-0.80;99.90;;;;;;4978001;28;20110;-76
2022/12/14 07:36:50;;;;;;;1999.90;999.90;;;-0.80;99.90;;;;;;4977660;28;20130;-76
2022/12/14 07:39:16;;;;;;;1999.90;999.90;;;-0.80;99.90;;;;;;4978018;28;20086;-76
2022/12/14 07:41:43;;;;;;;1999.90;999.90;;;-0.70;99.90;;;;;;4977570;28;20054;-78
2022/12/14 07:44:09;;;;;;;1999.90;999.90;;;-0.70;99.90;;;;;;4977971;28;20094;-77
2022/12/14 07:46:35;;;;;;;1999.90;999.90;;;-0.70;99.90;;;;;;4976600;28;20035;-76
2022/12/14 07:49:01;;;;;;;1999.90;999.90;;;-0.70;99.90;;;;;;4977800;28;20394;-76
2022/12/14 07:51:34;;;;;;;1999.90;999.90;;;-0.70;99.90;;;;;;4977233;28;20031;-77
2022/12/14 07:54:02;;;;;;;1999.90;999.90;;;-0.60;99.90;;;;;;4977776;28;20027;-76
2022/12/14 07:56:33;;;;;;;1999.90;999.90;;;-0.70;99.90;;;;;;4977569;28;20050;-76
2022/12/14 07:59:01;;;;;;;1999.90;999.90;;;-0.60;99.90;;;;;;4976436;28;20036;-76
2022/12/14 08:01:32;;;;;;;1999.90;999.90;;;-0.60;99.90;;;;;;4976893;28;20048;-76
2022/12/14 08:04:10;;;;;;;1999.90;999.90;;;-0.50;99.90;;;;;;4976013;28;20031;-76
2022/12/14 08:06:36;;;;;;;1999.90;999.90;;;-0.60;99.90;;;;;;4977809;28;20123;-76
2022/12/14 08:09:03;;;;;;;1999.90;999.90;;;-0.60;99.90;;;;;;4976084;28;20027;-77
2022/12/14 08:11:29;;;;;;;1999.90;999.90;;;-0.60;99.90;;;;;;4976954;28;20090;-76
2022/12/14 08:14:04;;;;;;;1999.90;999.90;;;-0.60;99.90;;;;;;4976009;28;20481;-76
2022/12/14 08:16:30;;;;;;;1999.90;999.90;;;-0.60;99.90;;;;;;4976926;28;20040;-76
2022/12/14 08:18:57;;;;;;;1999.90;999.90;;;-0.60;99.90;;;;;;4977359;28;20039;-76
2022/12/14 08:21:23;;;;;;;1999.90;999.90;;;-0.60;99.90;;;;;;4975673;28;20075;-76
2022/12/14 08:23:49;;;;;;;1999.90;999.90;;;-0.60;99.90;;;;;;4977295;28;20082;-76
2022/12/14 08:26:15;;;;;;;1999.90;999.90;;;-0.50;99.90;;;;;;4977245;28;20035;-76
2022/12/14 08:28:41;;;;;;;1999.90;999.90;;;-0.50;99.90;;;;;;4976287;28;20032;-76
2022/12/14 08:31:09;;;;;;;1999.90;999.90;;;-0.40;99.90;;;;;;4979606;28;20039;-80
2022/12/14 08:33:36;;;;;;;1999.90;999.90;;;-0.50;99.90;;;;;;4981579;28;20039;-76
2022/12/14 08:36:09;;;;;;;1999.90;999.90;;;-0.50;99.90;;;;;;4976869;28;20039;-76
2022/12/14 08:38:36;;;;;;;1999.90;999.90;;;-0.50;99.90;;;;;;4975272;28;20035;-77
2022/12/14 08:41:21;;;;;;;1999.90;999.90;;;-0.50;99.90;;;;;;4976686;28;20039;-76
2022/12/14 08:43:51;;;;;;;1999.90;999.90;;;-0.50;99.90;;;;;;4976604;28;20157;-77
2022/12/14 08:46:17;;;;;;;1999.90;999.90;;;-0.50;99.90;;;;;;4976632;28;20093;-76
2022/12/14 08:48:43;;;;;;;1999.90;999.90;;;-0.50;99.90;;;;;;4976849;28;20054;-77
2022/12/14 08:51:09;;;;;;;1999.90;999.90;;;-0.50;99.90;;;;;;4974613;28;20095;-77
2022/12/14 08:53:36;;;;;;;1999.90;999.90;;;-0.50;99.90;;;;;;4977311;28;20042;-77
2022/12/14 08:56:10;;;;;;;1999.90;999.90;;;-0.70;99.90;;;;;;4975139;28;20040;-77
2022/12/14 08:58:36;;;;;;;1999.90;999.90;;;-0.70;99.90;;;;;;4977692;28;20094;-77
2022/12/14 09:01:14;;;;;;;1999.90;999.90;;;-0.60;99.90;;;;;;4975942;28;20043;-76
2022/12/14 09:03:47;;;;;;;1999.90;999.90;;;-0.60;99.90;;;;;;4976335;28;20558;-76
2022/12/14 09:06:16;;;;;;;1999.90;999.90;;;-0.60;99.90;;;;;;4976532;28;20039;-76
2022/12/14 09:08:43;;;;;;;1999.90;999.90;;;-0.60;99.90;;;;;;4976633;28;20082;-76
2022/12/14 09:11:14;;;;;;;1999.90;999.90;;;-0.60;99.90;;;;;;4974634;28;20043;-77
2022/12/14 09:13:40;;;;;;;1999.90;999.90;;;-0.50;99.90;;;;;;4976801;28;20472;-76
2022/12/14 09:16:09;;;;;;;1999.90;999.90;;;-0.40;99.90;;;;;;4975132;28;20043;-76
2022/12/14 09:18:41;;;;;;;1999.90;999.90;;;-0.30;99.90;;;;;;4976354;28;20028;-77
2022/12/14 09:21:07;;;;;;;1999.90;999.90;;;-0.20;99.90;;;;;;4975173;28;20036;-74
2022/12/14 09:23:34;;;;;;;1999.90;999.90;;;-0.10;99.90;;;;;;4976155;28;20082;-74
2022/12/14 09:26:01;;;;;;;1999.90;999.90;;;0.00;99.90;;;;;;4976699;28;20038;-76
2022/12/14 09:28:27;;;;;;;1999.90;999.90;;;0.00;99.90;;;;;;4974346;28;20092;-74
2022/12/14 09:30:55;;;;;;;1999.90;999.90;;;0.00;99.90;;;;;;4975576;28;20136;-75
2022/12/14 09:33:21;;;;;;;1999.90;999.90;;;0.00;99.90;;;;;;4975400;28;20063;-74
2022/12/14 09:35:46;;;;;;;1999.90;999.90;;;0.00;99.90;;;;;;4976210;28;20078;-74
2022/12/14 09:38:12;;;;;;;1999.90;999.90;;;0.00;99.90;;;;;;4976303;28;20082;-74
2022/12/14 09:40:41;;;;;;;1999.90;999.90;;;-0.10;99.90;;;;;;4975341;28;20031;-74
2022/12/14 09:43:14;;;;;;;1999.90;999.90;;;-0.20;99.90;;;;;;4975375;28;20443;-78
2022/12/14 09:45:52;;;;;;;1999.90;999.90;;;-0.30;99.90;;;;;;4975934;28;20547;-75
2022/12/14 09:48:21;;;;;;;1999.90;999.90;;;-0.20;99.90;;;;;;4976020;28;20485;-74
2022/12/14 09:50:49;;;;;;;1999.90;999.90;;;-0.20;99.90;;;;;;4975417;28;20058;-79
2022/12/14 09:53:16;;;;;;;1999.90;999.90;;;0.00;99.90;;;;;;4977634;28;20537;-78
2022/12/14 09:55:54;;;;;;;1999.90;999.90;;;0.00;99.90;;;;;;4974990;28;20071;-76
2022/12/14 09:58:27;;;;;;;1999.90;999.90;;;0.00;99.90;;;;;;4975215;28;20127;-76
2022/12/14 10:01:23;;;;;;;1999.90;999.90;;;0.00;99.90;;;;;;4974905;28;20509;-76
2022/12/14 10:04:16;;;;;;;1999.90;999.90;;;-0.10;99.90;;;;;;4975380;28;20031;-76
2022/12/14 10:07:06;;;;;;;1999.90;999.90;;;-0.10;99.90;;;;;;4975799;28;20642;-78
2022/12/14 10:09:41;;;;;;;1999.90;999.90;;;-0.20;99.90;;;;;;4975824;28;20035;-77
2022/12/14 10:12:18;;;;;;;1999.90;999.90;;;-0.10;99.90;;;;;;4975486;28;20059;-77
2022/12/14 10:15:17;;;;;;;1999.90;999.90;;;-0.20;99.90;;;;;;4978565;28;20071;-81
2022/12/14 10:17:51;;;;;;;1999.90;999.90;;;-0.10;99.90;;;;;;4980265;28;20042;-79
2022/12/14 10:20:30;;;;;;;1999.90;999.90;;;-0.20;99.90;;;;;;4989792;28;20027;-81
2022/12/14 10:23:01;;;;;;;1999.90;999.90;;;-0.20;99.90;;;;;;4984443;28;20046;-80
2022/12/14 10:25:38;;;;;;;1999.90;999.90;;;-0.10;99.90;;;;;;4978434;28;20027;-77
2022/12/14 10:28:13;;;;;;;1999.90;999.90;;;0.00;99.90;;;;;;4975318;28;20027;-78
2022/12/14 10:30:42;;;;;;;1999.90;999.90;;;0.00;99.90;;;;;;4973688;28;20039;-77
2022/12/14 10:33:23;;;;;;;1999.90;999.90;;;0.20;99.90;;;;;;4975283;28;20855;-77
2022/12/14 10:36:06;;;;;;;1999.90;999.90;;;0.20;99.90;;;;;;4975574;28;20042;-78
2022/12/14 10:38:52;;;;;;;1999.90;999.90;;;0.20;99.90;;;;;;4975260;28;20035;-79
2022/12/14 10:41:30;;;;;;;1999.90;999.90;;;0.20;99.90;;;;;;4974953;28;20038;-78
2022/12/14 10:44:22;;;;;;;1999.90;999.90;;;0.30;99.90;;;;;;4975783;28;20040;-78
2022/12/14 10:47:03;;;;;;;1999.90;999.90;;;0.40;99.90;;;;;;4972186;28;20043;-78
2022/12/14 10:49:53;;;;;;;1999.90;999.90;;;0.50;99.90;;;;;;4975532;28;20516;-78
2022/12/14 10:52:22;;;;;;;1999.90;999.90;;;0.50;99.90;;;;;;4975141;28;20074;-78
2022/12/14 10:54:57;;;;;;;1999.90;999.90;;;0.50;99.90;;;;;;4974271;28;20071;-76
2022/12/14 10:57:27;;;;;;;1999.90;999.90;;;0.30;99.90;;;;;;4974174;28;20489;-84
2022/12/14 10:59:55;;;;;;;1999.90;999.90;;;0.50;99.90;;;;;;4975398;28;20087;-78
2022/12/14 11:02:26;;;;;;;1999.90;999.90;;;0.50;99.90;;;;;;4975757;28;20039;-79
2022/12/14 11:04:56;;;;;;;1999.90;999.90;;;0.50;99.90;;;;;;4974286;28;20039;-79
2022/12/14 11:07:26;;;;;;;1999.90;999.90;;;0.50;99.90;;;;;;4978320;28;20126;-80
2022/12/14 11:09:52;;;;;;;1999.90;999.90;;;0.40;99.90;;;;;;4978250;28;20114;-78
2022/12/14 11:12:23;;;;;;;1999.90;999.90;;;0.50;99.90;;;;;;4977992;28;20129;-78
2022/12/14 11:14:59;;;;;;;1999.90;999.90;;;0.50;99.90;;;;;;4977989;28;20024;-78
2022/12/14 11:17:38;;;;;;;1999.90;999.90;;;0.50;99.90;;;;;;4977759;28;20035;-77
2022/12/14 11:20:21;;;;;;;1999.90;999.90;;;0.50;99.90;;;;;;4982229;28;20031;-77
2022/12/14 11:23:04;;;;;;;1999.90;999.90;;;0.70;99.90;;;;;;4979766;28;20043;-77
2022/12/14 11:25:42;;;;;;;1999.90;999.90;;;0.70;99.90;;;;;;4978743;28;20024;-76
2022/12/14 11:28:22;;;;;;;1999.90;999.90;;;0.80;99.90;;;;;;4978298;28;20038;-77
2022/12/14 11:30:57;;;;;;;1999.90;999.90;;;0.80;99.90;;;;;;4978038;28;20055;-76
2022/12/14 11:33:30;;;;;;;1999.90;999.90;;;0.90;99.90;;;;;;4978223;28;20040;-75
2022/12/14 11:35:55;;;;;;;1999.90;999.90;;;0.80;99.90;;;;;;4978456;28;20039;-77
2022/12/14 11:38:28;;;;;;;1999.90;999.90;;;0.70;99.90;;;;;;4977953;28;20031;-77
2022/12/14 11:40:54;;;;;;;1999.90;999.90;;;0.60;99.90;;;;;;4977695;28;20027;-77
2022/12/14 11:43:37;;;;;;;1999.90;999.90;;;0.60;99.90;;;;;;4977967;28;20031;-77
2022/12/14 11:46:04;;;;;;;1999.90;999.90;;;0.70;99.90;;;;;;4977830;28;20036;-77
2022/12/14 11:48:30;;;;;;;1999.90;999.90;;;0.70;99.90;;;;;;4977890;28;20043;-76
2022/12/14 11:51:11;;;;;;;1999.90;999.90;;;0.70;99.90;;;;;;4975741;28;20035;-77
2022/12/14 11:53:36;;;;;;;1999.90;999.90;;;0.80;99.90;;;;;;4977761;28;20126;-76
2022/12/14 11:56:06;;;;;;;1999.90;999.90;;;1.00;99.90;;;;;;4977965;28;20397;-76
2022/12/14 11:58:35;;;;;;;1999.90;999.90;;;1.20;99.90;;;;;;4977643;28;20031;-76
2022/12/14 12:01:13;;;;;;;1999.90;999.90;;;1.30;99.90;;;;;;4976889;28;20071;-74
2022/12/14 12:03:51;;;;;;;1999.90;999.90;;;1.40;99.90;;;;;;4977655;28;20038;-74
2022/12/14 12:06:28;;;;;;;1999.90;999.90;;;1.30;99.90;;;;;;4977808;28;20057;-75
2022/12/14 12:09:25;;;;;;;1999.90;999.90;;;1.30;99.90;;;;;;4977545;28;20122;-76
2022/12/14 12:11:51;;;;;;;1999.90;999.90;;;1.10;99.90;;;;;;4977127;28;20039;-76
2022/12/14 12:14:24;;;;;;;1999.90;999.90;;;1.00;99.90;;;;;;4977371;28;20036;-76
2022/12/14 12:16:52;;;;;;;1999.90;999.90;;;0.70;99.90;;;;;;4975919;28;20047;-74
2022/12/14 12:19:32;;;;;;;1999.90;999.90;;;0.50;99.90;;;;;;4977282;28;20078;-74
2022/12/14 12:22:01;;;;;;;1999.90;999.90;;;0.40;99.90;;;;;;4976866;28;20038;-74
2022/12/14 12:24:47;;;;;;;1999.90;999.90;;;0.30;99.90;;;;;;4977250;28;20038;-74
2022/12/14 12:27:14;;;;;;;1999.90;999.90;;;0.40;99.90;;;;;;4977343;28;20063;-74
2022/12/14 12:29:49;;;;;;;1999.90;999.90;;;0.50;99.90;;;;;;4977168;28;20027;-74
2022/12/14 12:32:22;;;;;;;1999.90;999.90;;;0.60;99.90;;;;;;4977004;28;20169;-74
2022/12/14 12:34:51;;;;;;;1999.90;999.90;;;0.70;99.90;;;;;;4977033;28;20031;-76
2022/12/14 12:37:21;;;;;;;1999.90;999.90;;;0.80;99.90;;;;;;4977024;28;20066;-74
2022/12/14 12:39:55;;;;;;;1999.90;999.90;;;0.80;99.90;;;;;;4977087;28;20035;-74
2022/12/14 12:42:50;;;;;;;1999.90;999.90;;;0.70;99.90;;;;;;4977064;28;20086;-74
2022/12/14 12:45:41;;;;;;;1999.90;999.90;;;0.70;99.90;;;;;;4977130;28;20519;-74
2022/12/14 12:48:16;;;;;;;1999.90;999.90;;;0.60;99.90;;;;;;4972027;28;20075;-74
2022/12/14 12:50:47;;;;;;;1999.90;999.90;;;0.60;99.90;;;;;;4976680;28;20531;-74
2022/12/14 12:53:18;;;;;;;1999.90;999.90;;;0.60;99.90;;;;;;4976771;28;20051;-74
2022/12/14 12:55:48;;;;;;;1999.90;999.90;;;0.40;99.90;;;;;;4976797;28;20038;-74
2022/12/14 12:58:27;;;;;;;1999.90;999.90;;;0.40;99.90;;;;;;4976495;28;20126;-76
2022/12/14 13:00:57;;;;;;;1999.90;999.90;;;0.40;99.90;;;;;;4976101;28;20027;-76
2022/12/14 13:03:28;;;;;;;1999.90;999.90;;;0.40;99.90;;;;;;4976781;28;20027;-76
2022/12/14 13:06:02;;;;;;;1999.90;999.90;;;0.20;99.90;;;;;;4976788;28;20481;-76
2022/12/14 13:08:33;;;;;;;1999.90;999.90;;;0.20;99.90;;;;;;4976796;28;20035;-77
2022/12/14 13:11:04;;;;;;;1999.90;999.90;;;0.20;99.90;;;;;;4976267;28;20035;-77
2022/12/14 13:13:33;;;;;;;1999.90;999.90;;;0.30;99.90;;;;;;4976760;28;20035;-76
2022/12/14 13:16:19;;;;;;;1999.90;999.90;;;0.30;99.90;;;;;;4976352;28;20126;-76
2022/12/14 13:18:50;;;;;;;1999.90;999.90;;;0.40;99.90;;;;;;4976458;28;20069;-77
2022/12/14 13:21:35;;;;;;;1999.90;999.90;;;0.30;99.90;;;;;;4974357;28;20035;-76
2022/12/14 13:24:02;;;;;;;1999.90;999.90;;;0.40;99.90;;;;;;4976225;28;20086;-76
2022/12/14 13:26:36;;;;;;;1999.90;999.90;;;0.30;99.90;;;;;;4974925;28;20125;-77
2022/12/14 13:29:14;;;;;;;1999.90;999.90;;;0.30;99.90;;;;;;4975439;28;20069;-76
2022/12/14 13:31:51;;;;;;;1999.90;999.90;;;0.30;99.90;;;;;;4974306;28;20145;-76
2022/12/14 13:34:51;;;;;;;1999.90;999.90;;;0.20;99.90;;;;;;4976568;28;20457;-76
2022/12/14 13:37:36;;;;;;;1999.90;999.90;;;0.10;99.90;;;;;;4975905;28;20051;-76
2022/12/14 13:40:15;;;;;;;1999.90;999.90;;;0.20;99.90;;;;;;4976042;28;20031;-76
2022/12/14 13:43:09;;;;;;;1999.90;999.90;;;0.10;99.90;;;;;;4975958;28;20031;-77
2022/12/14 13:45:42;;;;;;;1999.90;999.90;;;0.10;99.90;;;;;;4976116;28;20494;-78
2022/12/14 13:48:25;;;;;;;1999.90;999.90;;;0.10;99.90;;;;;;4976028;28;20031;-76
2022/12/14 13:51:03;;;;;;;1999.90;999.90;;;0.10;99.90;;;;;;4975576;28;20473;-76
2022/12/14 13:53:39;;;;;;;1999.90;999.90;;;0.10;99.90;;;;;;4974491;28;20074;-76
2022/12/14 13:56:06;;;;;;;1999.90;999.90;;;0.10;99.90;;;;;;4975800;28;20035;-76
2022/12/14 13:58:38;;;;;;;1999.90;999.90;;;0.10;99.90;;;;;;4974555;28;20074;-77
2022/12/14 14:01:14;;;;;;;1999.90;999.90;;;0.20;99.90;;;;;;4973877;28;20529;-76
2022/12/14 14:03:46;;;;;;;1999.90;999.90;;;0.10;99.90;;;;;;4975752;28;20046;-76
2022/12/14 14:06:11;;;;;;;1999.90;999.90;;;0.10;99.90;;;;;;4975819;28;20032;-76
2022/12/14 14:08:41;;;;;;;1999.90;999.90;;;0.10;99.90;;;;;;4975658;28;20635;-76
2022/12/14 14:11:21;;;;;;;1999.90;999.90;;;0.10;99.90;;;;;;4974904;28;20035;-76
2022/12/14 14:13:47;;;;;;;1999.90;999.90;;;0.00;99.90;;;;;;4974064;28;20031;-76
2022/12/14 14:16:32;;;;;;;1999.90;999.90;;;0.00;99.90;;;;;;4975744;28;20043;-77
2022/12/14 14:19:03;;;;;;;1999.90;999.90;;;0.00;99.90;;;;;;4975938;28;20031;-77
2022/12/14 14:21:38;;;;;;;1999.90;999.90;;;0.00;99.90;;;;;;4975524;28;20159;-78
2022/12/14 14:24:20;;;;;;;1999.90;999.90;;;-0.10;99.90;;;;;;4975929;28;20031;-77
2022/12/14 14:27:17;;;;;;;1999.90;999.90;;;-0.10;99.90;;;;;;4975924;28;20445;-81
2022/12/14 14:29:47;;;;;;;1999.90;999.90;;;-0.20;99.90;;;;;;4976070;28;20066;-77
2022/12/14 14:32:34;;;;;;;1999.90;999.90;;;-0.30;99.90;;;;;;4975357;28;20110;-77
2022/12/14 14:35:04;;;;;;;1999.90;999.90;;;-0.30;99.90;;;;;;4975176;28;20024;-77
2022/12/14 14:37:35;;;;;;;1999.90;999.90;;;-0.40;99.90;;;;;;4975275;28;20043;-77
2022/12/14 14:40:09;;;;;;;1999.90;999.90;;;-0.40;99.90;;;;;;4975959;28;20114;-77
2022/12/14 14:42:40;;;;;;;1999.90;999.90;;;-0.40;99.90;;;;;;4978787;28;20529;-77
2022/12/14 14:45:26;;;;;;;1999.90;999.90;;;-0.40;99.90;;;;;;4979085;28;20085;-76
2022/12/14 14:47:58;;;;;;;1999.90;999.90;;;-0.50;99.90;;;;;;4978878;28;20039;-77
2022/12/14 14:50:31;;;;;;;1999.90;999.90;;;-0.50;99.90;;;;;;4979645;28;20038;-78
2022/12/14 14:53:17;;;;;;;1999.90;999.90;;;-0.50;99.90;;;;;;4979504;28;20043;-79
2022/12/14 14:55:48;;;;;;;1999.90;999.90;;;-0.60;99.90;;;;;;4976627;28;20042;-78
2022/12/14 14:58:25;;;;;;;1999.90;999.90;;;-0.60;99.90;;;;;;4978766;28;20072;-77
2022/12/14 15:01:13;;;;;;;1999.90;999.90;;;-0.60;99.90;;;;;;4977842;28;20114;-77
2022/12/14 15:03:50;;;;;;;1999.90;999.90;;;-0.70;99.90;;;;;;4978878;28;20498;-77
2022/12/14 15:06:29;;;;;;;1999.90;999.90;;;-0.70;99.90;;;;;;4980140;28;20035;-76
2022/12/14 15:09:13;;;;;;;1999.90;999.90;;;-0.80;99.90;;;;;;4978737;28;20035;-78
2022/12/14 15:11:52;;;;;;;1999.90;999.90;;;-0.70;99.90;;;;;;4978385;28;20035;-77
2022/12/14 15:14:38;;;;;;;1999.90;999.90;;;-0.80;99.90;;;;;;4978614;28;20040;-78
2022/12/14 15:17:17;;;;;;;1999.90;999.90;;;-0.80;99.90;;;;;;4976592;28;20568;-77
2022/12/14 15:19:48;;;;;;;1999.90;999.90;;;-0.80;99.90;;;;;;4978502;28;20433;-76
2022/12/14 15:22:18;;;;;;;1999.90;999.90;;;-0.80;99.90;;;;;;4978121;28;20097;-76
2022/12/14 15:24:46;;;;;;;1999.90;999.90;;;-0.80;99.90;;;;;;4978444;28;20564;-77
2022/12/14 15:27:28;;;;;;;1999.90;999.90;;;-0.80;99.90;;;;;;4978263;28;20039;-79
2022/12/14 15:30:11;;;;;;;1999.90;999.90;;;-0.90;99.90;;;;;;4978484;28;20121;-77
2022/12/14 15:32:39;;;;;;;1999.90;999.90;;;-0.80;99.90;;;;;;4979391;28;20118;-78
2022/12/14 15:35:12;;;;;;;1999.90;999.90;;;-0.80;99.90;;;;;;4978234;28;20039;-76
2022/12/14 15:37:48;;;;;;;1999.90;999.90;;;-0.80;99.90;;;;;;4976680;28;20508;-76
2022/12/14 15:40:16;;;;;;;1999.90;999.90;;;-0.80;99.90;;;;;;4977978;28;20035;-77
2022/12/14 15:42:57;;;;;;;1999.90;999.90;;;-0.80;99.90;;;;;;4979073;28;20105;-77
2022/12/14 15:45:33;;;;;;;1999.90;999.90;;;-0.80;99.90;;;;;;4977723;28;20035;-79
2022/12/14 15:48:21;;;;;;;1999.90;999.90;;;-0.80;99.90;;;;;;4979580;28;20110;-77
2022/12/14 15:50:53;;;;;;;1999.90;999.90;;;-0.80;99.90;;;;;;4978226;28;20040;-77
2022/12/14 15:53:30;;;;;;;1999.90;999.90;;;-0.80;99.90;;;;;;4978395;28;20031;-76
2022/12/14 15:55:57;;;;;;;1999.90;999.90;;;-0.80;99.90;;;;;;4976867;28;20044;-77
2022/12/14 15:58:33;;;;;;;1999.90;999.90;;;-0.90;99.90;;;;;;4978037;28;20090;-75
2022/12/14 16:01:27;;;;;;;1999.90;999.90;;;-0.90;99.90;;;;;;4976710;28;20043;-76
2022/12/14 16:03:56;;;;;;;1999.90;999.90;;;-0.90;99.90;;;;;;4994757;28;20051;-79
2022/12/14 16:06:26;;;;;;;1999.90;999.90;;;-0.90;99.90;;;;;;5001847;28;20023;-76
2022/12/14 16:08:51;;;;;;;1999.90;999.90;;;-1.00;99.90;;;;;;4977673;28;20032;-76
2022/12/14 16:11:25;;;;;;;1999.90;999.90;;;-1.00;99.90;;;;;;4977238;28;20035;-76
2022/12/14 16:13:51;;;;;;;1999.90;999.90;;;-1.00;99.90;;;;;;4977628;28;20464;-77
2022/12/14 16:16:17;;;;;;;1999.90;999.90;;;-1.00;99.90;;;;;;4977489;28;20044;-77
2022/12/14 16:18:47;;;;;;;1999.90;999.90;;;-1.10;99.90;;;;;;4978839;28;20032;-76
2022/12/14 16:21:31;;;;;;;1999.90;999.90;;;-1.10;99.90;;;;;;4975494;28;20035;-76
2022/12/14 16:23:58;;;;;;;1999.90;999.90;;;-1.10;99.90;;;;;;4978171;28;20039;-76
2022/12/14 16:26:36;;;;;;;1999.90;999.90;;;-1.10;99.90;;;;;;4962902;28;20054;-77
2022/12/14 16:29:06;;;;;;;1999.90;999.90;;;-1.10;99.90;;;;;;4962058;28;20031;-74
2022/12/14 16:31:32;;;;;;;1999.90;999.90;;;-1.10;99.90;;;;;;4961249;28;20126;-77
2022/12/14 16:34:07;;;;;;;1999.90;999.90;;;-1.10;99.90;;;;;;4968232;28;20064;-77
2022/12/14 16:36:35;;;;;;;1999.90;999.90;;;-1.20;99.90;;;;;;4962520;28;20051;-79
2022/12/14 16:39:13;;;;;;;1999.90;999.90;;;-1.20;99.90;;;;;;4967192;28;20034;-77
2022/12/14 16:41:55;;;;;;;1999.90;999.90;;;-1.20;99.90;;;;;;4975706;28;20170;-77
2022/12/14 16:44:32;;;;;;;1999.90;999.90;;;-1.20;99.90;;;;;;4970108;28;20115;-79
2022/12/14 16:47:03;;;;;;;1999.90;999.90;;;-1.20;99.90;;;;;;4970452;28;20118;-80
2022/12/14 16:50:02;;;;;;;1999.90;999.90;;;-1.20;99.90;;;;;;4976685;28;20028;-77
2022/12/14 16:52:28;;;;;;;1999.90;999.90;;;-1.20;99.90;;;;;;4953835;28;20098;-78
2022/12/14 16:55:25;;;;;;;1999.90;999.90;;;-1.20;99.90;;;;;;4975696;28;20103;-77
2022/12/14 16:57:57;;;;;;;1999.90;999.90;;;-1.20;99.90;;;;;;4948506;28;20051;-76
2022/12/14 17:00:28;;;;;;;1999.90;999.90;;;-1.20;99.90;;;;;;4967058;28;20095;-77
2022/12/14 17:02:56;;;;;;;1999.90;999.90;;;-1.20;99.90;;;;;;4968256;28;20449;-76
2022/12/14 17:05:22;;;;;;;1999.90;999.90;;;-1.20;99.90;;;;;;4969971;28;20048;-78
2022/12/14 17:07:48;;;;;;;1999.90;999.90;;;-1.20;99.90;;;;;;4973145;28;20036;-77
2022/12/14 17:10:19;;;;;;;1999.90;999.90;;;-1.20;99.90;;;;;;4961866;28;20374;-78
2022/12/14 17:12:46;;;;;;;1999.90;999.90;;;-1.20;99.90;;;;;;4964685;28;20087;-79
2022/12/14 17:15:18;;;;;;;1999.90;999.90;;;-1.20;99.90;;;;;;4969707;28;20035;-78
2022/12/14 17:17:45;;;;;;;1999.90;999.90;;;-1.20;99.90;;;;;;4960618;28;20502;-78
2022/12/14 17:20:22;;;;;;;1999.90;999.90;;;-1.20;99.90;;;;;;5019481;23;20057;-79
2022/12/14 17:22:48;;;;;;;1999.90;999.90;;;-1.20;99.90;;;;;;4995899;28;20046;-80
2022/12/14 17:25:15;;;;;;;1999.90;999.90;;;-1.20;99.90;;;;;;4993303;28;20114;-79
2022/12/14 17:27:41;;;;;;;1999.90;999.90;;;-1.20;99.90;;;;;;4992119;28;20027;-78